createdAt,value
2019-04-03T00:01:59.033Z,14.50
2019-04-03T00:07:05.188Z,14.50
2019-04-03T00:12:10.477Z,14.50
2019-04-03T00:17:15.925Z,14.50
2019-04-03T00:22:21.995Z,14.50
2019-04-03T00:27:26.845Z,14.40
2019-04-03T00:32:31.341Z,14.40
2019-04-03T00:37:35.790Z,14.40
2019-04-03T00:42:40.255Z,14.30
2019-04-03T00:47:44.707Z,14.30
2019-04-03T00:52:49.160Z,14.30
2019-04-03T00:57:54.757Z,14.30
2019-04-03T01:02:59.782Z,14.20
2019-04-03T01:08:04.231Z,14.20
2019-04-03T01:13:08.678Z,14.10
2019-04-03T01:18:13.164Z,14.10
2019-04-03T01:23:17.620Z,14.10
2019-04-03T01:28:22.070Z,14.10
2019-04-03T01:33:26.641Z,14.10
2019-04-03T01:38:31.229Z,14.10
2019-04-03T01:43:35.683Z,14.10
2019-04-03T01:48:40.245Z,14.10
2019-04-03T01:53:44.757Z,14.00
2019-04-03T01:58:49.219Z,14.00
2019-04-03T02:03:53.744Z,13.90
2019-04-03T02:08:58.194Z,13.90
2019-04-03T02:14:02.659Z,13.80
2019-04-03T02:19:07.123Z,13.80
2019-04-03T02:24:11.564Z,13.80
2019-04-03T02:29:16.018Z,13.80
2019-04-03T02:34:20.469Z,13.80
2019-04-03T02:39:27.357Z,13.70
2019-04-03T02:44:31.329Z,13.70
2019-04-03T02:49:35.839Z,13.70
2019-04-03T02:54:42.489Z,13.70
2019-04-03T02:59:47.014Z,13.70
2019-04-03T03:04:54.582Z,13.70
2019-04-03T03:09:58.112Z,13.70
2019-04-03T03:15:03.157Z,13.60
2019-04-03T03:20:09.090Z,13.60
2019-04-03T03:25:13.827Z,13.60
2019-04-03T03:30:35.949Z,13.60
2019-04-03T03:35:31.154Z,13.60
2019-04-03T03:40:32.932Z,13.50
2019-04-03T03:45:37.992Z,13.50
2019-04-03T03:50:43.323Z,13.50
2019-04-03T03:55:48.822Z,13.40
2019-04-03T04:00:58.249Z,13.40
2019-04-03T04:06:00.293Z,13.30
2019-04-03T04:11:05.321Z,13.20
2019-04-03T04:16:09.942Z,13.10
2019-04-03T04:21:14.421Z,13.10
2019-04-03T04:26:19.298Z,13.00
2019-04-03T04:31:23.946Z,12.90
2019-04-03T04:36:28.392Z,12.70
2019-04-03T04:41:33.171Z,12.70
2019-04-03T04:46:37.579Z,12.60
2019-04-03T04:51:43.197Z,12.50
2019-04-03T04:56:47.644Z,12.40
2019-04-03T05:01:52.106Z,12.40
2019-04-03T05:06:59.683Z,12.40
2019-04-03T05:12:02.749Z,12.40
2019-04-03T05:17:07.305Z,12.30
2019-04-03T05:22:12.072Z,12.40
2019-04-03T05:27:16.614Z,12.40
2019-04-03T05:32:21.057Z,12.40
2019-04-03T05:37:25.784Z,12.50
2019-04-03T05:42:30.256Z,12.60
2019-04-03T05:47:35.106Z,12.80
2019-04-03T05:52:39.653Z,12.80
2019-04-03T05:57:45.972Z,12.90
2019-04-03T06:02:52.575Z,12.90
2019-04-03T06:07:56.761Z,12.90
2019-04-03T06:13:01.207Z,13.00
2019-04-03T06:18:05.816Z,13.10
2019-04-03T06:23:10.276Z,13.10
2019-04-03T06:28:14.765Z,13.30
2019-04-03T06:33:19.484Z,13.40
2019-04-03T06:38:24.870Z,13.40
2019-04-03T06:43:30.657Z,13.50
2019-04-03T06:48:36.518Z,13.50
2019-04-03T06:53:41.458Z,13.60
2019-04-03T06:58:45.975Z,13.60
2019-04-03T07:03:50.639Z,13.60
2019-04-03T07:08:55.097Z,13.70
2019-04-03T07:13:59.569Z,13.90
2019-04-03T07:19:04.022Z,14.00
2019-04-03T07:24:08.720Z,14.20
2019-04-03T07:29:16.309Z,14.40
2019-04-03T07:34:19.543Z,15.00
2019-04-03T07:39:23.967Z,15.50
2019-04-03T07:44:29.803Z,16.20
2019-04-03T07:49:34.806Z,16.90
2019-04-03T07:54:39.360Z,17.30
2019-04-03T07:59:43.905Z,17.40
2019-04-03T08:04:48.342Z,17.50
2019-04-03T08:09:52.795Z,17.80
2019-04-03T08:14:57.244Z,18.10
2019-04-03T08:20:01.711Z,18.70
2019-04-03T08:25:11.032Z,19.20
2019-04-03T08:30:14.935Z,19.50
2019-04-03T08:35:23.157Z,19.80
2019-04-03T08:40:26.050Z,19.80
2019-04-03T08:45:30.749Z,20.30
2019-04-03T08:50:35.308Z,20.50
2019-04-03T08:55:39.782Z,21.40
2019-04-03T09:00:44.256Z,21.80
2019-04-03T09:05:51.041Z,21.90
2019-04-03T09:10:54.891Z,22.00
2019-04-03T09:16:00.355Z,22.30
2019-04-03T09:21:05.424Z,22.20
2019-04-03T09:26:10.082Z,21.50
2019-04-03T09:31:14.660Z,21.40
2019-04-03T09:36:19.265Z,21.70
2019-04-03T09:41:23.829Z,22.00
2019-04-03T09:46:30.478Z,22.40
2019-04-03T09:51:34.481Z,22.90
2019-04-03T09:56:54.481Z,23.30
2019-04-03T10:01:47.132Z,23.10
2019-04-03T10:06:51.394Z,23.20
2019-04-03T10:11:55.856Z,23.20
2019-04-03T10:17:00.314Z,24.10
2019-04-03T10:22:05.080Z,24.50
2019-04-03T10:27:11.183Z,24.60
2019-04-03T10:32:15.961Z,24.80
2019-04-03T10:37:20.548Z,25.10
2019-04-03T10:42:25.186Z,25.70
2019-04-03T10:47:40.390Z,26.60
2019-04-03T10:52:35.933Z,26.80
2019-04-03T10:57:40.666Z,26.00
2019-04-03T11:02:45.150Z,26.10
2019-04-03T11:07:49.587Z,26.80
2019-04-03T11:13:13.372Z,26.80
2019-04-03T11:18:20.484Z,25.40
2019-04-03T11:23:36.614Z,25.10
2019-04-03T11:28:30.707Z,26.20
2019-04-03T11:33:35.422Z,27.50
2019-04-03T11:38:40.221Z,29.10
2019-04-03T11:43:44.705Z,29.60
2019-04-03T11:48:49.305Z,29.60
2019-04-03T11:53:53.839Z,28.70
2019-04-03T11:58:58.491Z,27.60
2019-04-03T12:04:12.779Z,26.30
2019-04-03T12:09:17.296Z,25.30
2019-04-03T12:14:21.740Z,24.80
2019-04-03T12:19:28.259Z,23.90
2019-04-03T12:24:32.947Z,23.30
2019-04-03T12:29:37.562Z,22.80
2019-04-03T12:34:42.035Z,22.50
2019-04-03T12:39:46.537Z,22.30
2019-04-03T12:44:54.039Z,22.40
2019-04-03T12:49:57.331Z,23.00
2019-04-03T12:55:01.934Z,23.20
2019-04-03T13:00:13.098Z,23.20
2019-04-03T13:05:18.566Z,22.90
2019-04-03T13:10:23.359Z,22.90
2019-04-03T13:15:28.471Z,23.00
2019-04-03T13:20:36.038Z,23.20
2019-04-03T13:25:39.240Z,23.10
2019-04-03T13:30:44.855Z,22.90
2019-04-03T13:35:49.614Z,22.70
2019-04-03T13:40:54.207Z,22.40
2019-04-03T13:45:59.042Z,21.90
2019-04-03T13:51:03.618Z,21.80
2019-04-03T13:56:10.269Z,21.60
2019-04-03T14:01:14.800Z,21.20
2019-04-03T14:06:19.712Z,20.90
2019-04-03T14:11:24.359Z,20.80
2019-04-03T14:16:29.046Z,20.70
2019-04-03T14:21:35.735Z,20.60
2019-04-03T14:26:39.958Z,20.40
2019-04-03T14:31:47.959Z,20.30
2019-04-03T14:36:51.129Z,20.00
2019-04-03T14:41:56.151Z,19.80
2019-04-03T14:47:01.196Z,19.70
2019-04-03T14:52:05.759Z,19.60
2019-04-03T14:57:20.250Z,19.50
2019-04-03T15:02:16.938Z,19.30
2019-04-03T15:07:21.438Z,19.10
2019-04-03T15:12:26.390Z,18.90
2019-04-03T15:17:30.957Z,18.80
2019-04-03T15:22:35.795Z,18.80
2019-04-03T15:27:40.380Z,18.70
2019-04-03T15:32:44.913Z,18.50
2019-04-03T15:37:49.457Z,18.50
2019-04-03T15:42:54.718Z,18.40
2019-04-03T15:47:59.774Z,18.40
2019-04-03T15:53:04.635Z,18.30
2019-04-03T15:58:09.438Z,18.20
2019-04-03T16:03:14.976Z,18.10
2019-04-03T16:08:20.621Z,18.00
2019-04-03T16:13:25.693Z,18.00
2019-04-03T16:18:30.690Z,17.90
2019-04-03T16:23:37.281Z,17.90
2019-04-03T16:28:41.947Z,17.80
2019-04-03T16:33:46.659Z,17.80
2019-04-03T16:38:51.676Z,17.80
2019-04-03T16:43:56.199Z,17.70
2019-04-03T16:49:00.994Z,17.70
2019-04-03T16:54:06.447Z,17.60
2019-04-03T16:59:11.058Z,17.50
2019-04-03T17:04:25.371Z,17.40
2019-04-03T17:09:21.802Z,17.40
2019-04-03T17:14:26.244Z,17.40
2019-04-03T17:19:51.482Z,17.20
2019-04-03T17:24:56.529Z,17.10
2019-04-03T17:30:01.494Z,17.00
2019-04-03T17:35:08.743Z,17.00
2019-04-03T17:40:14.187Z,16.90
2019-04-03T17:45:18.729Z,16.80
2019-04-03T17:50:23.202Z,16.80
2019-04-03T17:55:27.656Z,16.70
2019-04-03T18:00:32.180Z,16.60
2019-04-03T18:05:36.639Z,16.50
2019-04-03T18:10:42.631Z,16.40
2019-04-03T18:15:47.420Z,16.40
2019-04-03T18:20:51.944Z,16.30
2019-04-03T18:25:57.825Z,16.30
2019-04-03T18:31:02.612Z,16.20
2019-04-03T18:36:07.077Z,16.10
2019-04-03T18:41:11.780Z,16.00
2019-04-03T18:46:31.123Z,15.90
2019-04-03T18:51:32.228Z,15.80
2019-04-03T18:56:36.780Z,15.80
2019-04-03T19:01:41.238Z,15.70
2019-04-03T19:06:45.862Z,15.70
2019-04-03T19:11:51.522Z,15.60
2019-04-03T19:16:57.080Z,15.50
2019-04-03T19:22:01.530Z,15.50
2019-04-03T19:27:06.156Z,15.50
2019-04-03T19:32:12.227Z,15.40
2019-04-03T19:37:16.850Z,15.30
2019-04-03T19:42:21.390Z,15.30
2019-04-03T19:47:25.907Z,15.20
2019-04-03T19:52:30.610Z,15.20
2019-04-03T19:57:35.152Z,15.10
2019-04-03T20:02:42.735Z,15.00
2019-04-03T20:07:45.800Z,15.00
2019-04-03T20:12:50.803Z,14.90
2019-04-03T20:17:55.467Z,14.80
2019-04-03T20:23:00.006Z,14.10
2019-04-03T20:28:04.585Z,13.30
2019-04-03T20:33:11.517Z,12.80
2019-04-03T20:38:15.547Z,12.10
2019-04-03T20:43:20.003Z,11.70
2019-04-03T20:48:28.079Z,11.40
2019-04-03T20:53:30.641Z,11.20
2019-04-03T20:58:35.394Z,11.00
2019-04-03T21:03:39.837Z,10.70
2019-04-03T21:08:44.279Z,10.40
2019-04-03T21:13:48.736Z,10.20
2019-04-03T21:18:53.190Z,10.00
2019-04-03T21:23:57.645Z,10.00
2019-04-03T21:29:02.075Z,9.80
2019-04-03T21:34:06.545Z,9.70
2019-04-03T21:39:12.858Z,9.70
2019-04-03T21:44:17.139Z,9.70
2019-04-03T21:49:21.587Z,9.80
2019-04-03T21:54:26.850Z,9.80
2019-04-03T21:59:31.741Z,9.80
2019-04-03T22:04:36.185Z,9.90
2019-04-03T22:09:40.686Z,9.70
2019-04-03T22:14:45.133Z,9.80
2019-04-03T22:19:49.578Z,9.70
2019-04-03T22:24:54.016Z,9.60
2019-04-03T22:29:58.452Z,9.60
2019-04-03T22:35:04.525Z,9.60
2019-04-03T22:40:10.615Z,9.40
2019-04-03T22:45:15.338Z,9.20
2019-04-03T22:50:19.798Z,9.20
2019-04-03T22:55:24.247Z,9.30
2019-04-03T23:00:28.691Z,9.10
2019-04-03T23:05:33.482Z,9.10
2019-04-03T23:10:37.938Z,9.20
2019-04-03T23:15:43.486Z,9.20
2019-04-03T23:20:47.941Z,9.00
2019-04-03T23:25:52.417Z,8.90
2019-04-03T23:30:56.854Z,8.90
2019-04-03T23:36:01.305Z,8.90
2019-04-03T23:41:06.124Z,8.90
2019-04-03T23:46:12.808Z,8.90
2019-04-03T23:51:23.028Z,8.90
2019-04-03T23:56:23.563Z,8.90
